createdAt,value
2022-11-09T00:01:04.570Z,297.87
2022-11-09T00:03:32.953Z,320.53
2022-11-09T00:06:01.957Z,197.03
2022-11-09T00:08:30.401Z,275.23
2022-11-09T00:11:05.507Z,179.63
2022-11-09T00:13:36.444Z,251.77
2022-11-09T00:16:04.918Z,177.80
2022-11-09T00:18:33.055Z,79.70
2022-11-09T00:21:05.983Z,246.10
2022-11-09T00:23:34.005Z,324.47
2022-11-09T00:26:02.421Z,170.43
2022-11-09T00:28:31.868Z,134.40
2022-11-09T00:31:00.823Z,112.70
2022-11-09T00:33:29.145Z,297.33
2022-11-09T00:35:57.477Z,128.27
2022-11-09T00:38:25.806Z,38.93
2022-11-09T00:40:53.832Z,177.30
2022-11-09T00:43:22.116Z,296.47
2022-11-09T00:45:51.579Z,184.33
2022-11-09T00:48:19.590Z,259.90
2022-11-09T00:50:50.985Z,263.97
2022-11-09T00:53:19.437Z,78.13
2022-11-09T00:55:58.066Z,316.63
2022-11-09T00:58:26.695Z,404.90
2022-11-09T01:00:56.765Z,256.70
2022-11-09T01:03:25.445Z,371.13
2022-11-09T01:05:53.831Z,222.30
2022-11-09T01:08:21.942Z,265.73
2022-11-09T01:10:50.157Z,292.50
2022-11-09T01:13:20.218Z,164.43
2022-11-09T01:15:50.239Z,235.57
2022-11-09T01:18:21.664Z,238.40
2022-11-09T01:20:51.475Z,459.57
2022-11-09T01:23:20.848Z,221.03
2022-11-09T01:25:49.019Z,137.73
2022-11-09T01:28:17.600Z,105.47
2022-11-09T01:30:45.599Z,457.70
2022-11-09T01:33:13.655Z,270.47
2022-11-09T01:35:43.041Z,300.07
2022-11-09T01:38:11.382Z,598.37
2022-11-09T01:40:41.177Z,44.43
2022-11-09T01:43:17.225Z,246.00
2022-11-09T01:45:48.409Z,164.60
2022-11-09T01:48:19.637Z,284.00
2022-11-09T01:50:53.299Z,93.80
2022-11-09T01:53:27.201Z,192.40
2022-11-09T01:55:58.671Z,59.20
2022-11-09T01:58:29.509Z,181.70
2022-11-09T02:01:00.237Z,253.73
2022-11-09T02:03:31.185Z,249.83
2022-11-09T02:06:02.135Z,166.13
2022-11-09T02:08:30.209Z,298.17
2022-11-09T02:11:06.196Z,292.17
2022-11-09T02:13:35.115Z,176.73
2022-11-09T02:16:03.720Z,206.27
2022-11-09T02:18:32.618Z,121.33
2022-11-09T02:21:02.002Z,211.33
2022-11-09T02:23:30.718Z,236.87
2022-11-09T02:26:02.359Z,321.87
2022-11-09T02:28:31.619Z,168.53
2022-11-09T02:31:00.446Z,340.17
2022-11-09T02:33:28.452Z,192.77
2022-11-09T02:35:56.485Z,261.20
2022-11-09T02:38:25.879Z,279.30
2022-11-09T02:40:54.663Z,291.90
2022-11-09T02:43:22.900Z,210.43
2022-11-09T02:45:51.137Z,210.33
2022-11-09T02:48:19.175Z,174.17
2022-11-09T02:50:47.175Z,402.33
2022-11-09T02:53:15.165Z,102.93
2022-11-09T02:55:44.575Z,215.27
2022-11-09T02:58:12.569Z,121.10
2022-11-09T03:00:40.611Z,151.70
2022-11-09T03:03:08.627Z,102.90
2022-11-09T03:05:37.781Z,234.33
2022-11-09T03:08:06.049Z,342.17
2022-11-09T03:10:34.088Z,219.10
2022-11-09T03:13:03.441Z,195.03
2022-11-09T03:15:31.493Z,277.70
2022-11-09T03:17:59.494Z,219.97
2022-11-09T03:20:27.528Z,284.33
2022-11-09T03:22:59.151Z,301.83
2022-11-09T03:25:27.693Z,340.40
2022-11-09T03:27:59.143Z,418.77
2022-11-09T03:30:29.033Z,455.73
2022-11-09T03:33:00.349Z,438.23
2022-11-09T03:35:28.637Z,445.27
2022-11-09T03:37:56.765Z,194.37
2022-11-09T03:40:24.889Z,332.50
2022-11-09T03:42:52.868Z,227.10
2022-11-09T03:45:20.927Z,336.70
2022-11-09T03:47:50.362Z,103.40
2022-11-09T03:50:19.462Z,137.47
2022-11-09T03:52:48.149Z,351.67
2022-11-09T03:55:16.614Z,187.00
2022-11-09T03:57:46.202Z,160.93
2022-11-09T04:00:17.342Z,201.23
2022-11-09T04:02:45.768Z,273.10
2022-11-09T04:05:15.677Z,409.47
2022-11-09T04:07:48.492Z,248.27
2022-11-09T04:10:16.706Z,315.63
2022-11-09T04:12:44.867Z,320.80
2022-11-09T04:15:13.606Z,310.37
2022-11-09T04:17:41.984Z,247.53
2022-11-09T04:20:10.708Z,455.60
2022-11-09T04:22:40.167Z,146.50
2022-11-09T04:25:08.799Z,651.13
2022-11-09T04:27:36.805Z,578.03
2022-11-09T04:30:05.331Z,512.37
2022-11-09T04:32:33.338Z,581.60
2022-11-09T04:35:01.355Z,332.77
2022-11-09T04:37:29.351Z,445.33
2022-11-09T04:39:58.735Z,644.17
2022-11-09T04:42:26.742Z,374.30
2022-11-09T04:44:54.784Z,525.37
2022-11-09T04:47:22.803Z,470.07
2022-11-09T04:49:50.830Z,288.57
2022-11-09T04:52:18.831Z,611.30
2022-11-09T04:54:46.863Z,362.83
2022-11-09T04:57:16.253Z,423.63
2022-11-09T04:59:44.287Z,195.60
2022-11-09T05:02:12.279Z,513.60
2022-11-09T05:04:40.308Z,355.23
2022-11-09T05:07:08.345Z,636.70
2022-11-09T05:09:36.403Z,236.23
2022-11-09T05:12:04.449Z,389.03
2022-11-09T05:14:33.855Z,235.60
2022-11-09T05:17:01.867Z,267.97
2022-11-09T05:19:29.902Z,239.87
2022-11-09T05:22:17.890Z,357.47
2022-11-09T05:24:44.941Z,221.30
2022-11-09T05:27:13.117Z,376.93
2022-11-09T05:29:42.508Z,457.80
2022-11-09T05:32:10.539Z,489.53
2022-11-09T05:34:38.577Z,380.50
2022-11-09T05:37:06.611Z,360.67
2022-11-09T05:39:34.632Z,442.70
2022-11-09T05:42:02.634Z,513.47
2022-11-09T05:44:30.674Z,563.97
2022-11-09T05:47:00.021Z,640.00
2022-11-09T05:49:28.081Z,466.47
2022-11-09T05:51:56.088Z,292.53
2022-11-09T05:54:24.114Z,383.27
2022-11-09T05:56:52.186Z,650.50
2022-11-09T05:59:20.202Z,343.73
2022-11-09T06:01:48.293Z,366.23
2022-11-09T06:04:17.679Z,376.13
2022-11-09T06:06:45.772Z,437.67
2022-11-09T06:09:13.905Z,728.37
2022-11-09T06:11:41.947Z,408.70
2022-11-09T06:14:09.940Z,363.50
2022-11-09T06:16:38.171Z,476.83
2022-11-09T06:19:06.169Z,235.43
2022-11-09T06:21:35.547Z,493.90
2022-11-09T06:24:03.558Z,473.27
2022-11-09T06:26:31.590Z,279.10
2022-11-09T06:28:59.599Z,308.40
2022-11-09T06:31:28.219Z,603.73
2022-11-09T06:33:58.570Z,431.23
2022-11-09T06:36:28.084Z,443.40
2022-11-09T06:38:57.688Z,514.37
2022-11-09T06:41:25.752Z,436.27
2022-11-09T06:43:53.857Z,520.50
2022-11-09T06:46:21.954Z,397.90
2022-11-09T06:48:54.374Z,297.30
2022-11-09T06:51:22.846Z,313.60
2022-11-09T06:53:51.162Z,441.23
2022-11-09T06:56:20.719Z,642.87
2022-11-09T06:58:49.117Z,528.13
2022-11-09T07:01:20.875Z,401.47
2022-11-09T07:03:48.885Z,656.13
2022-11-09T07:06:16.938Z,427.57
2022-11-09T07:08:44.972Z,492.70
2022-11-09T07:11:16.193Z,694.90
2022-11-09T07:13:45.602Z,341.50
2022-11-09T07:16:17.249Z,517.17
2022-11-09T07:18:46.146Z,464.70
2022-11-09T07:21:14.671Z,511.37
2022-11-09T07:23:43.457Z,563.43
2022-11-09T07:26:11.577Z,618.30
2022-11-09T07:28:39.769Z,669.13
2022-11-09T07:31:09.995Z,509.43
2022-11-09T07:33:38.226Z,432.33
2022-11-09T07:36:07.104Z,613.03
2022-11-09T07:38:35.120Z,612.07
2022-11-09T07:41:03.547Z,473.50
2022-11-09T07:43:31.543Z,429.17
2022-11-09T07:45:59.616Z,299.97
2022-11-09T07:48:28.986Z,448.73
2022-11-09T07:50:57.339Z,636.10
2022-11-09T07:53:25.349Z,840.33
2022-11-09T07:55:58.568Z,402.13
2022-11-09T07:58:26.817Z,422.93
2022-11-09T08:00:55.060Z,459.97
2022-11-09T08:03:24.215Z,536.63
2022-11-09T08:05:53.661Z,756.77
2022-11-09T08:08:21.687Z,543.37
2022-11-09T08:10:52.326Z,444.10
2022-11-09T08:13:21.199Z,498.77
2022-11-09T08:15:49.556Z,460.07
2022-11-09T08:18:19.229Z,770.40
2022-11-09T08:20:48.149Z,412.43
2022-11-09T08:23:19.339Z,346.17
2022-11-09T08:25:47.433Z,306.27
2022-11-09T08:28:16.952Z,571.03
2022-11-09T08:30:45.599Z,568.60
2022-11-09T08:33:14.320Z,400.67
2022-11-09T08:35:42.363Z,484.77
2022-11-09T08:38:10.861Z,331.73
2022-11-09T08:40:40.332Z,708.63
2022-11-09T08:43:09.888Z,674.70
2022-11-09T08:45:39.677Z,820.17
2022-11-09T08:48:08.471Z,799.50
2022-11-09T08:50:37.846Z,670.83
2022-11-09T08:53:06.351Z,600.03
2022-11-09T08:55:34.685Z,641.03
2022-11-09T08:58:05.166Z,409.17
2022-11-09T09:00:33.242Z,899.10
2022-11-09T09:03:05.978Z,488.97
2022-11-09T09:05:34.289Z,453.73
2022-11-09T09:08:02.853Z,592.97
2022-11-09T09:10:32.304Z,396.10
2022-11-09T09:13:01.093Z,781.10
2022-11-09T09:15:30.534Z,607.33
2022-11-09T09:18:01.512Z,345.47
2022-11-09T09:20:29.875Z,448.10
2022-11-09T09:23:00.107Z,545.60
2022-11-09T09:25:28.698Z,761.47
2022-11-09T09:27:56.874Z,716.93
2022-11-09T09:30:24.950Z,666.83
2022-11-09T09:32:58.613Z,341.20
2022-11-09T09:35:26.973Z,600.30
2022-11-09T09:37:55.347Z,567.57
2022-11-09T09:40:28.250Z,662.97
2022-11-09T09:42:57.236Z,327.53
2022-11-09T09:45:29.120Z,302.07
2022-11-09T09:48:03.458Z,420.07
2022-11-09T09:50:38.214Z,647.33
2022-11-09T09:53:24.122Z,453.63
2022-11-09T09:55:57.542Z,439.63
2022-11-09T09:58:27.823Z,728.57
2022-11-09T10:00:59.487Z,999.90
2022-11-09T10:03:29.060Z,633.40
2022-11-09T10:06:09.561Z,438.00
2022-11-09T10:08:48.227Z,375.57
2022-11-09T10:11:29.202Z,489.20
2022-11-09T10:14:16.248Z,725.03
2022-11-09T10:16:52.041Z,659.30
2022-11-09T10:19:54.006Z,882.43
2022-11-09T10:22:27.507Z,581.30
2022-11-09T10:27:53.763Z,470.23
2022-11-09T10:30:24.215Z,682.97
2022-11-09T10:32:55.445Z,454.73
2022-11-09T10:35:30.456Z,511.83
2022-11-09T10:37:58.517Z,644.00
2022-11-09T10:40:31.424Z,543.17
2022-11-09T10:43:01.884Z,453.40
2022-11-09T10:45:34.673Z,363.67
2022-11-09T10:48:03.849Z,527.42
2022-11-09T10:50:36.271Z,575.85
2022-11-09T10:53:15.790Z,438.55
2022-11-09T10:55:54.819Z,734.83
2022-11-09T10:58:32.575Z,678.20
2022-11-09T11:01:03.061Z,642.47
2022-11-09T11:03:33.114Z,748.67
2022-11-09T11:06:04.162Z,709.67
2022-11-09T11:08:43.157Z,688.72
2022-11-09T11:11:38.622Z,697.73
2022-11-09T11:14:23.166Z,576.67
2022-11-09T11:16:53.175Z,636.63
2022-11-09T11:19:32.126Z,632.30
2022-11-09T11:22:19.239Z,674.73
2022-11-09T11:24:55.806Z,630.57
2022-11-09T11:27:30.220Z,857.13
2022-11-09T11:30:06.731Z,550.13
2022-11-09T11:32:35.236Z,693.67
2022-11-09T11:35:05.767Z,869.07
2022-11-09T11:37:47.456Z,815.27
2022-11-09T11:40:24.815Z,564.83
2022-11-09T11:43:08.031Z,679.07
2022-11-09T11:45:42.370Z,775.65
2022-11-09T11:48:27.365Z,633.60
2022-11-09T11:51:01.746Z,517.17
2022-11-09T11:53:45.415Z,358.33
2022-11-09T11:56:22.292Z,794.50
2022-11-09T11:59:21.837Z,776.70
2022-11-09T12:02:10.636Z,913.08
2022-11-09T12:04:56.282Z,766.90
2022-11-09T12:07:33.410Z,657.28
2022-11-09T12:10:20.754Z,691.27
2022-11-09T12:12:57.793Z,757.77
2022-11-09T12:15:38.863Z,472.10
2022-11-09T12:18:20.559Z,751.47
2022-11-09T12:20:58.868Z,776.80
2022-11-09T12:23:43.636Z,664.67
2022-11-09T12:26:24.389Z,791.75
2022-11-09T12:29:07.598Z,503.15
2022-11-09T12:31:48.725Z,958.60
2022-11-09T12:34:24.646Z,709.80
2022-11-09T12:36:55.635Z,660.10
2022-11-09T12:39:28.781Z,642.28
2022-11-09T12:42:03.102Z,828.28
2022-11-09T12:44:36.032Z,685.88
2022-11-09T12:47:07.986Z,834.88
2022-11-09T12:49:38.461Z,698.13
2022-11-09T12:52:08.139Z,729.10
2022-11-09T12:54:38.073Z,815.13
2022-11-09T12:57:09.805Z,940.25
2022-11-09T12:59:47.935Z,820.97
2022-11-09T13:02:28.489Z,730.20
2022-11-09T13:04:59.516Z,723.38
2022-11-09T13:07:49.679Z,695.83
2022-11-09T13:10:28.686Z,639.60
2022-11-09T13:13:23.498Z,630.03
2022-11-09T13:16:36.079Z,791.80
2022-11-09T13:19:04.480Z,757.00
2022-11-09T13:21:42.875Z,471.67
2022-11-09T13:24:49.335Z,638.88
2022-11-09T13:27:38.254Z,751.13
2022-11-09T13:30:41.634Z,720.05
2022-11-09T13:33:25.436Z,751.03
2022-11-09T13:36:23.694Z,802.63
2022-11-09T13:39:29.802Z,602.13
2022-11-09T13:41:57.846Z,727.00
2022-11-09T13:44:32.793Z,749.67
2022-11-09T13:47:04.097Z,536.75
2022-11-09T13:49:49.115Z,461.17
2022-11-09T13:52:57.864Z,376.67
2022-11-09T13:55:30.653Z,622.63
2022-11-09T13:58:04.703Z,818.40
2022-11-09T14:00:33.176Z,518.23
2022-11-09T14:03:03.863Z,401.40
2022-11-09T14:05:35.907Z,690.37
2022-11-09T14:08:05.824Z,500.37
2022-11-09T14:10:52.301Z,640.33
2022-11-09T14:14:03.604Z,410.63
2022-11-09T14:16:42.821Z,562.00
2022-11-09T14:19:21.350Z,447.77
2022-11-09T14:21:53.284Z,400.52
2022-11-09T14:24:23.265Z,565.10
2022-11-09T14:27:02.489Z,499.17
2022-11-09T14:29:33.116Z,441.80
2022-11-09T14:32:03.126Z,642.13
2022-11-09T14:34:31.419Z,707.40
2022-11-09T14:37:04.915Z,468.93
2022-11-09T14:39:35.161Z,540.63
2022-11-09T14:42:03.182Z,508.73
2022-11-09T14:44:40.131Z,385.63
2022-11-09T14:47:15.867Z,386.00
2022-11-09T14:49:45.311Z,522.17
2022-11-09T14:52:19.136Z,639.87
2022-11-09T14:54:48.594Z,633.87
2022-11-09T14:57:18.290Z,700.93
2022-11-09T14:59:46.642Z,560.23
2022-11-09T15:02:17.216Z,459.93
2022-11-09T15:05:03.678Z,378.70
2022-11-09T15:07:35.885Z,314.27
2022-11-09T15:10:08.040Z,250.63
2022-11-09T15:12:40.099Z,483.30
2022-11-09T15:15:21.227Z,354.70
2022-11-09T15:17:49.517Z,244.63
2022-11-09T15:20:33.344Z,559.10
2022-11-09T15:23:04.844Z,481.73
2022-11-09T15:25:36.311Z,541.50
2022-11-09T15:28:20.476Z,577.60
2022-11-09T15:31:05.522Z,383.80
2022-11-09T15:33:47.398Z,381.17
2022-11-09T15:36:26.560Z,423.63
2022-11-09T15:39:03.044Z,287.03
2022-11-09T15:41:31.584Z,724.53
2022-11-09T15:43:59.774Z,407.90
2022-11-09T15:46:33.075Z,283.10
2022-11-09T15:49:14.121Z,633.57
2022-11-09T15:51:42.320Z,392.97
2022-11-09T15:54:11.734Z,299.00
2022-11-09T15:56:40.050Z,611.70
2022-11-09T15:59:08.710Z,126.03
2022-11-09T16:01:37.394Z,272.20
2022-11-09T16:04:05.448Z,179.77
2022-11-09T16:06:33.516Z,245.70
2022-11-09T16:09:01.579Z,299.73
2022-11-09T16:11:30.958Z,447.20
2022-11-09T16:14:01.453Z,425.20
2022-11-09T16:16:29.720Z,178.70
2022-11-09T16:18:58.475Z,85.23
2022-11-09T16:21:26.763Z,181.00
2022-11-09T16:23:58.509Z,236.93
2022-11-09T16:26:27.102Z,160.80
2022-11-09T16:28:56.496Z,267.23
2022-11-09T16:31:48.109Z,247.53
2022-11-09T16:34:12.620Z,102.97
2022-11-09T16:36:46.033Z,116.83
2022-11-09T16:39:17.241Z,204.03
2022-11-09T16:41:47.861Z,149.10
2022-11-09T16:44:21.213Z,344.33
2022-11-09T16:46:49.674Z,161.30
2022-11-09T16:49:17.722Z,231.67
2022-11-09T16:51:45.735Z,146.20
2022-11-09T16:54:13.775Z,104.07
2022-11-09T16:56:41.813Z,70.37
2022-11-09T16:59:09.927Z,73.17
2022-11-09T17:01:39.435Z,154.40
2022-11-09T17:04:08.492Z,102.47
2022-11-09T17:06:37.318Z,84.50
2022-11-09T17:09:05.502Z,29.90
2022-11-09T17:11:33.925Z,82.97
2022-11-09T17:14:01.955Z,117.47
2022-11-09T17:16:30.678Z,42.10
2022-11-09T17:19:00.385Z,128.47
2022-11-09T17:21:30.157Z,155.27
2022-11-09T17:23:59.062Z,43.70
2022-11-09T17:26:27.599Z,43.50
2022-11-09T17:28:55.605Z,109.67
2022-11-09T17:31:26.551Z,126.43
2022-11-09T17:34:00.982Z,252.40
2022-11-09T17:36:57.292Z,113.87
2022-11-09T17:39:18.791Z,37.73
2022-11-09T17:41:46.806Z,200.77
2022-11-09T17:44:14.826Z,233.97
2022-11-09T17:46:43.027Z,286.57
2022-11-09T17:49:11.058Z,142.40
2022-11-09T17:51:41.101Z,93.57
2022-11-09T17:54:09.139Z,75.17
2022-11-09T17:56:37.426Z,21.73
2022-11-09T17:59:06.519Z,149.30
2022-11-09T18:01:40.751Z,141.53
2022-11-09T18:04:11.383Z,94.67
2022-11-09T18:06:40.897Z,125.83
2022-11-09T18:11:57.195Z,257.77
2022-11-09T18:14:25.711Z,154.57
2022-11-09T18:16:54.127Z,95.23
2022-11-09T18:19:22.227Z,249.77
2022-11-09T18:21:51.936Z,133.67
2022-11-09T18:24:20.254Z,137.43
2022-11-09T18:26:48.302Z,144.83
2022-11-09T18:29:16.515Z,160.80
2022-11-09T18:31:44.918Z,146.60
2022-11-09T18:34:13.298Z,85.37
2022-11-09T18:36:41.906Z,77.17
2022-11-09T18:39:12.618Z,135.67
2022-11-09T18:41:40.806Z,147.63
2022-11-09T18:44:09.509Z,167.10
2022-11-09T18:46:37.548Z,63.13
2022-11-09T18:49:11.519Z,69.67
2022-11-09T18:51:42.078Z,156.07
2022-11-09T18:54:11.452Z,222.93
2022-11-09T18:56:39.487Z,13.90
2022-11-09T18:59:07.474Z,126.47
2022-11-09T19:01:35.512Z,73.03
2022-11-09T19:04:03.533Z,49.83
2022-11-09T19:06:31.760Z,208.70
2022-11-09T19:09:17.450Z,127.83
2022-11-09T19:11:46.914Z,90.50
2022-11-09T19:14:15.035Z,39.80
2022-11-09T19:16:43.210Z,230.07
2022-11-09T19:19:14.607Z,47.20
2022-11-09T19:21:44.595Z,165.57
2022-11-09T19:24:14.087Z,58.50
2022-11-09T19:26:42.328Z,201.63
2022-11-09T19:29:13.160Z,34.47
2022-11-09T19:31:43.305Z,266.97
2022-11-09T19:34:11.397Z,348.67
2022-11-09T19:36:39.504Z,46.07
2022-11-09T19:39:07.507Z,157.90
2022-11-09T19:41:35.567Z,79.33
2022-11-09T19:44:03.968Z,237.50
2022-11-09T19:46:35.667Z,48.13
2022-11-09T19:49:05.370Z,57.07
2022-11-09T19:51:34.741Z,27.67
2022-11-09T19:54:04.545Z,33.83
2022-11-09T19:56:33.773Z,184.93
2022-11-09T19:59:02.939Z,16.13
2022-11-09T20:01:31.741Z,184.10
2022-11-09T20:04:06.380Z,105.47
2022-11-09T20:06:38.013Z,37.37
2022-11-09T20:09:06.303Z,67.60
2022-11-09T20:11:52.181Z,95.57
2022-11-09T20:14:21.196Z,104.40
2022-11-09T20:16:49.243Z,119.73
2022-11-09T20:19:19.655Z,98.30
2022-11-09T20:21:49.026Z,75.83
2022-11-09T20:24:17.247Z,214.70
2022-11-09T20:26:45.305Z,76.47
2022-11-09T20:29:13.347Z,185.70
2022-11-09T20:31:41.619Z,39.93
2022-11-09T20:34:10.063Z,100.27
2022-11-09T20:36:39.458Z,183.73
2022-11-09T20:39:07.453Z,128.27
2022-11-09T20:41:36.450Z,118.90
2022-11-09T20:44:04.647Z,17.13
2022-11-09T20:46:36.094Z,155.83
2022-11-09T20:49:04.867Z,21.97
2022-11-09T20:51:33.250Z,234.50
2022-11-09T20:54:07.182Z,100.97
2022-11-09T20:56:35.882Z,154.00
2022-11-09T20:59:04.623Z,38.20
2022-11-09T21:01:32.774Z,102.47
2022-11-09T21:04:00.877Z,73.53
2022-11-09T21:06:29.029Z,310.27
2022-11-09T21:08:57.229Z,279.50
2022-11-09T21:11:28.768Z,99.07
2022-11-09T21:13:57.563Z,88.20
2022-11-09T21:16:25.780Z,65.77
2022-11-09T21:18:53.903Z,74.07
2022-11-09T21:21:23.662Z,120.63
2022-11-09T21:24:09.297Z,359.93
2022-11-09T21:26:56.024Z,110.53
2022-11-09T21:29:43.464Z,231.73
2022-11-09T21:32:12.638Z,238.70
2022-11-09T21:34:40.696Z,41.43
2022-11-09T21:37:09.068Z,200.43
2022-11-09T21:39:37.093Z,110.77
2022-11-09T21:42:07.475Z,108.73
2022-11-09T21:44:36.050Z,217.33
2022-11-09T21:47:05.042Z,114.93
2022-11-09T21:49:33.095Z,35.40
2022-11-09T21:52:01.648Z,127.00
2022-11-09T21:54:29.701Z,120.27
2022-11-09T21:56:57.940Z,61.53
2022-11-09T21:59:27.398Z,21.53
2022-11-09T22:01:55.541Z,153.27
2022-11-09T22:04:23.643Z,206.90
2022-11-09T22:06:51.707Z,22.67
2022-11-09T22:09:19.918Z,185.30
2022-11-09T22:12:05.469Z,205.83
2022-11-09T22:14:52.113Z,62.93
2022-11-09T22:17:20.132Z,18.73
2022-11-09T22:20:05.552Z,21.03
2022-11-09T22:22:33.984Z,118.73
2022-11-09T22:25:01.998Z,32.80
2022-11-09T22:27:31.384Z,24.67
2022-11-09T22:30:00.887Z,26.47
2022-11-09T22:32:28.989Z,52.57
2022-11-09T22:34:57.029Z,35.40
2022-11-09T22:37:25.046Z,63.13
2022-11-09T22:39:53.056Z,25.83
2022-11-09T22:42:21.050Z,32.00
2022-11-09T22:44:49.054Z,20.67
2022-11-09T22:47:18.456Z,34.40
2022-11-09T22:49:46.456Z,47.00
2022-11-09T22:52:14.530Z,22.17
2022-11-09T22:54:42.550Z,25.37
2022-11-09T22:57:10.855Z,15.50
2022-11-09T22:59:38.863Z,26.70
2022-11-09T23:02:06.926Z,56.40
2022-11-09T23:04:36.285Z,22.27
2022-11-09T23:07:04.318Z,27.67
2022-11-09T23:09:32.391Z,33.27
2022-11-09T23:12:00.413Z,96.60
2022-11-09T23:14:42.298Z,23.13
2022-11-09T23:17:30.481Z,40.87
2022-11-09T23:19:58.864Z,55.77
2022-11-09T23:22:26.878Z,31.70
2022-11-09T23:25:12.333Z,32.90
2022-11-09T23:27:40.366Z,64.90
2022-11-09T23:30:09.241Z,37.73
2022-11-09T23:32:37.255Z,21.93
2022-11-09T23:35:07.855Z,55.50
2022-11-09T23:37:35.893Z,22.57
2022-11-09T23:40:04.431Z,20.93
2022-11-09T23:42:32.487Z,33.47
2022-11-09T23:45:00.507Z,20.87
2022-11-09T23:47:28.555Z,16.50
2022-11-09T23:49:56.580Z,22.00
2022-11-09T23:52:25.978Z,54.10
2022-11-09T23:54:53.958Z,63.70
2022-11-09T23:57:21.973Z,53.43
2022-11-09T23:59:49.973Z,78.90
